TS28 weather

Northeast Community Hospital Heliport
Bedford, Texas, United States

Public forecast

Using degrees Fahrenheit for public forecast. Weather courtesy of forecast.io.

Closest aviation weather report (METAR) to Northeast Community Hospital Heliport

Closest report is Dallas Fort Worth International Airport, 6.5 nm (12.1 km) ENE. Retrieved 2020/04/08 23:53 UTC (1 hour ago):

KDFW 082353Z 27011KT 10SM BKN300 33/05 A2975 RMK AO2 SLP063 T03330050 10361 20311 55002

Closest aviation forecast (TAF) to Northeast Community Hospital Heliport

Closest forecast is Dallas Fort Worth International Airport, 6.5 nm (12.1 km) ENE. Retrieved 2020-04-09 00:27 UTC (31 minutes ago):

TAF KDFW 082324Z 0900/1006 26012KT P6SM SCT250 FM090600 32006KT P6SM SKC FM091200 06014KT P6SM BKN250 FM092200 05006KT P6SM BKN250